createdAt,value
2022-11-24T00:00:22.654Z,13.30
2022-11-24T00:00:54.665Z,13.30
2022-11-24T00:01:26.639Z,13.20
2022-11-24T00:01:58.422Z,12.80
2022-11-24T00:02:31.411Z,12.40
2022-11-24T00:03:00.754Z,12.50
2022-11-24T00:03:32.334Z,13.70
2022-11-24T00:04:07.759Z,12.80
2022-11-24T00:04:37.811Z,13.30
2022-11-24T00:05:06.109Z,13.20
2022-11-24T00:05:37.390Z,12.20
2022-11-24T00:06:09.524Z,12.60
2022-11-24T00:06:41.935Z,13.50
2022-11-24T00:07:14.373Z,12.50
2022-11-24T00:07:49.071Z,12.80
2022-11-24T00:08:17.788Z,13.40
2022-11-24T00:08:48.971Z,13.60
2022-11-24T00:09:20.408Z,13.00
2022-11-24T00:09:51.800Z,13.70
2022-11-24T00:10:24.870Z,12.50
2022-11-24T00:10:53.475Z,12.70
2022-11-24T00:11:24.923Z,13.90
2022-11-24T00:11:57.026Z,13.70
2022-11-24T00:12:29.105Z,13.20
2022-11-24T00:13:03.600Z,14.00
2022-11-24T00:13:33.405Z,12.80
2022-11-24T00:14:06.515Z,13.90
2022-11-24T00:14:36.516Z,12.80
2022-11-24T00:15:09.228Z,13.70
2022-11-24T00:15:40.528Z,13.70
2022-11-24T00:16:11.795Z,13.10
2022-11-24T00:16:43.661Z,13.40
2022-11-24T00:17:14.747Z,13.40
2022-11-24T00:17:46.994Z,13.90
2022-11-24T00:18:18.455Z,13.30
2022-11-24T00:18:50.236Z,12.90
2022-11-24T00:19:22.478Z,13.40
2022-11-24T00:19:53.441Z,13.90
2022-11-24T00:20:24.718Z,13.20
2022-11-24T00:20:58.861Z,13.00
2022-11-24T00:21:27.475Z,13.50
2022-11-24T00:22:01.583Z,13.50
2022-11-24T00:22:30.804Z,13.50
2022-11-24T00:23:04.638Z,13.00
2022-11-24T00:23:33.054Z,12.70
2022-11-24T00:24:06.425Z,13.00
2022-11-24T00:24:36.080Z,13.10
2022-11-24T00:25:07.899Z,13.30
2022-11-24T00:25:40.234Z,13.20
2022-11-24T00:26:11.818Z,12.90
2022-11-24T00:26:46.081Z,12.70
2022-11-24T00:27:14.321Z,12.80
2022-11-24T00:27:46.369Z,13.30
2022-11-24T00:28:19.666Z,13.10
2022-11-24T00:28:47.679Z,14.10
2022-11-24T00:29:19.253Z,13.20
2022-11-24T00:29:51.734Z,12.90
2022-11-24T00:30:23.010Z,12.70
2022-11-24T00:30:53.987Z,12.90
2022-11-24T00:31:26.366Z,13.60
2022-11-24T00:31:57.957Z,13.20
2022-11-24T00:32:29.630Z,12.80
2022-11-24T00:33:00.523Z,12.70
2022-11-24T00:33:32.720Z,12.30
2022-11-24T00:34:03.959Z,11.70
2022-11-24T00:34:35.283Z,11.50
2022-11-24T00:35:06.847Z,12.30
2022-11-24T00:35:38.114Z,11.80
2022-11-24T00:36:09.584Z,13.40
2022-11-24T00:36:41.731Z,11.60
2022-11-24T00:37:13.029Z,12.30
2022-11-24T00:37:49.026Z,12.10
2022-11-24T00:38:14.195Z,12.00
2022-11-24T00:38:46.529Z,11.70
2022-11-24T00:39:17.485Z,12.80
2022-11-24T00:39:48.594Z,12.70
2022-11-24T00:40:19.864Z,12.00
2022-11-24T00:40:51.838Z,12.10
2022-11-24T00:41:23.281Z,12.40
2022-11-24T00:41:54.883Z,12.90
2022-11-24T00:42:26.024Z,11.80
2022-11-24T00:42:57.322Z,12.10
2022-11-24T00:43:28.872Z,13.00
2022-11-24T00:43:59.870Z,12.40
2022-11-24T00:44:32.393Z,12.70
2022-11-24T00:45:13.235Z,12.30
2022-11-24T00:45:36.633Z,11.70
2022-11-24T00:46:05.499Z,12.00
2022-11-24T00:46:36.809Z,11.00
2022-11-24T00:47:10.264Z,12.20
2022-11-24T00:47:39.757Z,11.90
2022-11-24T00:48:17.648Z,12.30
2022-11-24T00:48:43.418Z,11.40
2022-11-24T00:49:15.078Z,10.60
2022-11-24T00:49:48.125Z,12.70
2022-11-24T00:50:19.903Z,11.80
2022-11-24T00:50:50.946Z,10.80
2022-11-24T00:51:22.930Z,11.90
2022-11-24T00:51:54.374Z,12.60
2022-11-24T00:52:27.429Z,11.30
2022-11-24T00:52:55.667Z,11.90
2022-11-24T00:53:27.502Z,11.40
2022-11-24T00:53:59.514Z,12.20
2022-11-24T00:54:31.760Z,11.70
2022-11-24T00:55:02.911Z,12.20
2022-11-24T00:55:34.467Z,11.10
2022-11-24T00:56:07.343Z,11.10
2022-11-24T00:56:38.280Z,10.80
2022-11-24T00:57:10.666Z,11.00
2022-11-24T00:57:42.166Z,10.80
2022-11-24T00:58:14.077Z,10.80
2022-11-24T00:58:44.908Z,11.30
2022-11-24T00:59:15.991Z,11.00
2022-11-24T00:59:46.889Z,10.90
2022-11-24T01:00:17.973Z,11.50
2022-11-24T01:00:48.881Z,10.00
2022-11-24T01:01:19.811Z,11.00
2022-11-24T01:01:51.016Z,10.60
2022-11-24T01:02:22.035Z,11.40
2022-11-24T01:02:52.997Z,10.80
2022-11-24T01:03:23.854Z,11.80
2022-11-24T01:03:54.857Z,10.90
2022-11-24T01:04:25.781Z,10.90
2022-11-24T01:04:56.688Z,11.10
2022-11-24T01:05:27.541Z,11.60
2022-11-24T01:05:58.427Z,12.10
2022-11-24T01:06:29.304Z,11.70
2022-11-24T01:07:00.210Z,11.40
2022-11-24T01:07:31.335Z,11.40
2022-11-24T01:08:02.317Z,12.20
2022-11-24T01:08:33.320Z,11.30
2022-11-24T01:09:04.172Z,11.10
2022-11-24T01:09:35.012Z,11.20
2022-11-24T01:10:05.891Z,12.20
2022-11-24T01:10:36.777Z,11.70
2022-11-24T01:11:07.712Z,10.60
2022-11-24T01:11:38.655Z,11.70
2022-11-24T01:12:09.502Z,11.50
2022-11-24T01:12:40.391Z,12.40
2022-11-24T01:13:11.267Z,10.80
2022-11-24T01:13:42.100Z,12.40
2022-11-24T01:14:13.070Z,12.00
2022-11-24T01:14:43.911Z,12.90
2022-11-24T01:15:14.763Z,11.90
2022-11-24T01:15:45.772Z,12.50
2022-11-24T01:16:16.879Z,12.80
2022-11-24T01:16:48.232Z,12.10
2022-11-24T01:17:19.192Z,12.90
2022-11-24T01:17:50.209Z,13.50
2022-11-24T01:18:21.119Z,12.90
2022-11-24T01:18:52.287Z,13.00
2022-11-24T01:19:23.207Z,13.20
2022-11-24T01:19:54.320Z,12.10
2022-11-24T01:20:25.272Z,11.70
2022-11-24T01:20:56.246Z,12.70
2022-11-24T01:21:27.160Z,12.10
2022-11-24T01:21:58.505Z,12.20
2022-11-24T01:22:29.415Z,13.00
2022-11-24T01:23:00.271Z,13.30
2022-11-24T01:23:31.264Z,12.60
2022-11-24T01:24:02.121Z,13.20
2022-11-24T01:24:33.425Z,13.50
2022-11-24T01:25:04.716Z,12.70
2022-11-24T01:25:35.612Z,12.70
2022-11-24T01:26:06.615Z,14.00
2022-11-24T01:26:37.576Z,13.20
2022-11-24T01:27:08.512Z,12.70
2022-11-24T01:27:39.437Z,13.20
2022-11-24T01:28:10.348Z,13.50
2022-11-24T01:28:46.588Z,14.00
2022-11-24T01:29:14.225Z,14.00
2022-11-24T01:29:45.181Z,13.30
2022-11-24T01:30:16.277Z,13.20
2022-11-24T01:30:47.347Z,13.70
2022-11-24T01:31:18.304Z,13.60
2022-11-24T01:31:49.190Z,13.40
2022-11-24T01:32:20.072Z,13.30
2022-11-24T01:32:50.986Z,13.10
2022-11-24T01:33:21.919Z,13.50
2022-11-24T01:33:52.920Z,12.90
2022-11-24T01:34:23.754Z,13.30
2022-11-24T01:34:55.036Z,13.30
2022-11-24T01:35:25.991Z,13.80
2022-11-24T01:35:57.236Z,13.60
2022-11-24T01:36:28.085Z,13.70
2022-11-24T01:36:59.050Z,13.70
2022-11-24T01:37:30.109Z,14.50
2022-11-24T01:38:01.107Z,14.00
2022-11-24T01:38:32.068Z,14.30
2022-11-24T01:39:03.111Z,14.30
2022-11-24T01:39:34.124Z,13.90
2022-11-24T01:40:05.435Z,14.10
2022-11-24T01:40:36.438Z,14.60
2022-11-24T01:41:07.586Z,13.60
2022-11-24T01:41:38.559Z,13.50
2022-11-24T01:42:09.618Z,13.40
2022-11-24T01:42:40.561Z,14.00
2022-11-24T01:43:11.565Z,14.90
2022-11-24T01:43:42.859Z,14.30
2022-11-24T01:44:13.784Z,14.10
2022-11-24T01:44:45.908Z,14.80
2022-11-24T01:45:17.061Z,15.60
2022-11-24T01:45:48.132Z,14.70
2022-11-24T01:46:20.999Z,14.30
2022-11-24T01:46:52.001Z,14.70
2022-11-24T01:47:22.962Z,14.80
2022-11-24T01:47:53.827Z,13.80
2022-11-24T01:48:27.527Z,14.40
2022-11-24T01:48:56.029Z,13.80
2022-11-24T01:49:26.980Z,14.20
2022-11-24T01:49:57.870Z,14.20
2022-11-24T01:50:28.833Z,14.80
2022-11-24T01:50:59.728Z,14.30
2022-11-24T01:51:30.691Z,14.40
2022-11-24T01:52:01.560Z,14.20
2022-11-24T01:52:32.458Z,14.20
2022-11-24T01:53:03.495Z,14.30
2022-11-24T01:53:34.396Z,14.40
2022-11-24T01:54:05.288Z,15.50
2022-11-24T01:54:36.510Z,15.10
2022-11-24T01:55:07.644Z,15.10
2022-11-24T01:55:38.469Z,16.00
2022-11-24T01:56:09.605Z,15.60
2022-11-24T01:56:40.539Z,14.70
2022-11-24T01:57:11.394Z,14.30
2022-11-24T01:57:42.470Z,15.10
2022-11-24T01:58:13.533Z,14.80
2022-11-24T01:58:44.516Z,15.40
2022-11-24T01:59:15.961Z,14.80
2022-11-24T01:59:47.133Z,14.90
2022-11-24T02:00:18.045Z,14.80
2022-11-24T02:00:48.959Z,15.80
2022-11-24T02:01:20.045Z,15.40
2022-11-24T02:01:51.072Z,15.30
2022-11-24T02:02:22.088Z,14.10
2022-11-24T02:02:53.272Z,14.40
2022-11-24T02:03:24.126Z,15.30
2022-11-24T02:03:55.320Z,14.20
2022-11-24T02:04:26.589Z,14.30
2022-11-24T02:04:57.991Z,14.80
2022-11-24T02:05:29.111Z,14.70
2022-11-24T02:06:00.038Z,14.50
2022-11-24T02:06:31.127Z,13.90
2022-11-24T02:07:02.166Z,14.40
2022-11-24T02:07:33.310Z,14.60
2022-11-24T02:08:04.246Z,14.70
2022-11-24T02:08:35.633Z,15.20
2022-11-24T02:09:07.535Z,14.70
2022-11-24T02:09:38.385Z,14.90
2022-11-24T02:10:09.293Z,14.10
2022-11-24T02:10:41.156Z,15.50
2022-11-24T02:11:12.087Z,15.10
2022-11-24T02:11:43.091Z,14.90
2022-11-24T02:12:14.073Z,15.10
2022-11-24T02:12:45.168Z,15.30
2022-11-24T02:13:16.156Z,14.50
2022-11-24T02:13:48.840Z,15.40
2022-11-24T02:14:19.933Z,13.90
2022-11-24T02:14:50.811Z,14.40
2022-11-24T02:15:23.286Z,14.60
2022-11-24T02:15:54.549Z,14.10
2022-11-24T02:16:25.948Z,14.80
2022-11-24T02:16:57.883Z,15.10
2022-11-24T02:17:28.748Z,15.20
2022-11-24T02:17:59.612Z,14.70
2022-11-24T02:18:30.579Z,14.80
2022-11-24T02:19:02.046Z,14.50
2022-11-24T02:19:33.339Z,14.80
2022-11-24T02:20:04.438Z,13.90
2022-11-24T02:20:36.611Z,14.80
2022-11-24T02:21:07.701Z,15.20
2022-11-24T02:21:38.662Z,15.20
2022-11-24T02:22:09.793Z,15.50
2022-11-24T02:22:40.960Z,16.10
2022-11-24T02:23:11.927Z,15.50
2022-11-24T02:23:42.814Z,14.30
2022-11-24T02:24:13.707Z,14.60
2022-11-24T02:24:44.620Z,14.20
2022-11-24T02:25:15.930Z,16.50
2022-11-24T02:25:47.014Z,15.10
2022-11-24T02:26:18.159Z,15.50
2022-11-24T02:26:49.108Z,14.80
2022-11-24T02:27:20.010Z,14.80
2022-11-24T02:42:07.542Z,15.50
2022-11-24T02:42:38.774Z,17.00
2022-11-24T02:43:10.255Z,16.60
2022-11-24T02:43:41.591Z,17.50
2022-11-24T02:44:12.565Z,17.40
2022-11-24T02:44:43.526Z,16.40
2022-11-24T02:45:16.278Z,16.20
2022-11-24T02:45:48.379Z,15.50
2022-11-24T02:46:19.657Z,16.50
2022-11-24T02:46:51.037Z,16.10
2022-11-24T02:47:22.050Z,15.90
2022-11-24T02:47:53.264Z,15.90
2022-11-24T02:48:24.830Z,15.60
2022-11-24T02:48:56.925Z,15.90
2022-11-24T02:49:28.194Z,16.70
2022-11-24T02:50:00.401Z,16.20
2022-11-24T02:50:32.434Z,16.40
2022-11-24T02:51:03.542Z,16.00
2022-11-24T02:51:34.848Z,16.50
2022-11-24T02:52:06.188Z,16.60
2022-11-24T02:52:40.112Z,16.50
2022-11-24T02:53:10.103Z,16.20
2022-11-24T02:53:43.171Z,15.70
2022-11-24T02:54:12.138Z,16.70
2022-11-24T02:54:44.949Z,16.20
2022-11-24T02:55:18.387Z,15.90
2022-11-24T02:55:46.684Z,16.60
2022-11-24T02:56:19.495Z,17.60
2022-11-24T02:56:51.555Z,16.90
2022-11-24T04:05:57.810Z,17.90
2022-11-24T04:06:28.599Z,17.90
2022-11-24T04:06:59.394Z,18.50
2022-11-24T04:07:30.195Z,17.20
2022-11-24T04:08:01.013Z,18.20
2022-11-24T04:08:31.806Z,18.50
2022-11-24T04:09:02.583Z,17.10
2022-11-24T04:09:33.334Z,18.30
2022-11-24T04:10:04.101Z,17.70
2022-11-24T04:10:34.862Z,15.80
2022-11-24T04:11:05.614Z,18.70
2022-11-24T04:11:36.386Z,16.90
2022-11-24T04:12:07.153Z,17.00
2022-11-24T04:12:37.923Z,17.50
2022-11-24T04:13:08.690Z,18.80
2022-11-24T04:13:39.445Z,18.60
2022-11-24T04:14:13.507Z,18.80
2022-11-24T04:14:41.552Z,18.30
2022-11-24T04:15:12.351Z,17.50
2022-11-24T04:15:43.164Z,18.10
2022-11-24T04:16:14.033Z,18.00
2022-11-24T04:16:44.820Z,18.60
2022-11-24T04:17:15.578Z,17.80
2022-11-24T04:17:46.345Z,19.00
2022-11-24T04:18:17.411Z,17.90
2022-11-24T04:18:48.498Z,18.30
2022-11-24T04:19:19.280Z,18.30
2022-11-24T04:19:50.051Z,17.80
2022-11-24T04:20:20.827Z,17.40
2022-11-24T04:20:51.585Z,18.60
2022-11-24T04:21:22.363Z,16.80
2022-11-24T04:21:53.147Z,17.20
2022-11-24T04:22:23.917Z,17.30
2022-11-24T04:22:54.695Z,17.70
2022-11-24T04:23:25.474Z,19.10
2022-11-24T04:23:56.258Z,19.60
2022-11-24T04:24:27.047Z,18.50
2022-11-24T04:24:57.817Z,17.60
2022-11-24T04:25:28.597Z,19.40
2022-11-24T04:25:59.416Z,17.20
2022-11-24T04:26:30.165Z,17.70
2022-11-24T04:27:00.927Z,19.50
2022-11-24T04:27:31.699Z,19.40
2022-11-24T04:28:02.543Z,19.70
2022-11-24T04:28:33.298Z,18.20
2022-11-24T04:29:04.105Z,18.10
2022-11-24T04:29:34.884Z,17.10
2022-11-24T04:30:05.662Z,16.60
2022-11-24T04:30:36.426Z,17.60
2022-11-24T04:31:07.233Z,17.70
2022-11-24T04:31:38.074Z,18.40
2022-11-24T04:32:08.868Z,19.10
2022-11-24T04:32:39.626Z,18.10
2022-11-24T04:33:10.398Z,18.20
2022-11-24T04:33:41.166Z,16.80
2022-11-24T04:34:11.986Z,17.10
2022-11-24T04:34:42.767Z,16.40
2022-11-24T04:35:13.528Z,16.90
2022-11-24T04:35:44.327Z,16.30
2022-11-24T04:36:15.098Z,16.90
2022-11-24T04:36:45.870Z,16.10
2022-11-24T04:37:16.711Z,17.30
2022-11-24T04:37:47.495Z,16.60
2022-11-24T04:39:24.143Z,16.70
2022-11-24T04:39:24.750Z,17.40
2022-11-24T04:39:28.087Z,17.10
2022-11-24T04:39:56.117Z,17.10
2022-11-24T04:40:26.880Z,17.50
2022-11-24T04:40:57.668Z,16.90
2022-11-24T04:41:28.444Z,17.10
2022-11-24T04:41:59.207Z,17.50
2022-11-24T04:42:29.979Z,18.00
2022-11-24T04:43:00.765Z,16.70
2022-11-24T04:43:35.168Z,17.50
2022-11-24T04:44:04.179Z,17.30
2022-11-24T04:44:35.161Z,16.30
2022-11-24T04:45:06.225Z,16.00
2022-11-24T04:45:36.997Z,17.20
2022-11-24T04:46:07.794Z,17.90
2022-11-24T04:46:38.615Z,17.50
2022-11-24T04:47:09.415Z,17.40
2022-11-24T04:47:40.180Z,18.00
2022-11-24T04:48:10.972Z,17.60
2022-11-24T04:48:41.730Z,17.90
2022-11-24T04:49:12.530Z,18.30
2022-11-24T04:49:43.289Z,18.70
2022-11-24T04:50:14.049Z,18.40
2022-11-24T04:50:44.832Z,19.00
2022-11-24T04:51:15.602Z,17.70
2022-11-24T04:51:46.381Z,18.40
2022-11-24T04:52:17.162Z,16.70
2022-11-24T04:52:47.919Z,17.00
2022-11-24T04:53:18.691Z,17.20
2022-11-24T04:53:49.451Z,18.20
2022-11-24T04:54:20.261Z,18.50
2022-11-24T04:54:51.027Z,18.70
2022-11-24T04:55:21.804Z,17.90
2022-11-24T04:55:52.548Z,18.20
2022-11-24T04:56:23.302Z,18.90
2022-11-24T04:56:54.071Z,19.00
2022-11-24T04:57:24.845Z,18.90
2022-11-24T04:57:55.619Z,17.30
2022-11-24T04:58:26.391Z,18.40
2022-11-24T04:58:57.161Z,18.90
2022-11-24T04:59:27.980Z,17.60
2022-11-24T04:59:58.743Z,18.40
2022-11-24T05:00:29.517Z,18.50
2022-11-24T05:01:00.312Z,17.70
2022-11-24T05:01:31.134Z,18.20
2022-11-24T05:02:02.072Z,18.60
2022-11-24T05:02:32.881Z,18.80
2022-11-24T05:03:03.662Z,18.00
2022-11-24T05:03:34.423Z,17.60
2022-11-24T05:04:05.209Z,17.10
2022-11-24T05:04:36.515Z,17.10
2022-11-24T05:05:07.489Z,17.90
2022-11-24T05:05:38.254Z,18.10
2022-11-24T05:06:09.023Z,16.70
2022-11-24T05:06:39.792Z,17.30
2022-11-24T05:07:14.994Z,17.20
2022-11-24T05:07:43.204Z,17.90
2022-11-24T05:08:14.004Z,18.50
2022-11-24T05:08:44.764Z,17.50
2022-11-24T05:09:15.544Z,17.70
2022-11-24T05:09:59.024Z,17.60
2022-11-24T05:10:18.925Z,17.50
2022-11-24T05:10:49.682Z,18.10
2022-11-24T05:11:20.472Z,19.00
2022-11-24T05:11:51.244Z,18.50
2022-11-24T05:12:22.004Z,19.00
2022-11-24T05:12:52.774Z,20.30
2022-11-24T05:13:23.566Z,19.70
2022-11-24T05:13:54.325Z,19.90
2022-11-24T05:14:25.113Z,20.40
2022-11-24T05:14:55.874Z,20.50
2022-11-24T05:15:26.644Z,20.00
2022-11-24T05:15:57.432Z,19.40
2022-11-24T05:16:28.333Z,17.90
2022-11-24T05:16:59.095Z,18.40
2022-11-24T05:17:29.865Z,18.40
2022-11-24T05:18:00.635Z,19.00
2022-11-24T05:18:31.424Z,18.10
2022-11-24T05:19:02.209Z,18.20
2022-11-24T05:19:32.985Z,18.90
2022-11-24T05:20:03.764Z,18.20
2022-11-24T05:20:34.535Z,18.80
2022-11-24T05:21:05.295Z,19.00
2022-11-24T05:21:36.075Z,18.20
2022-11-24T05:22:06.826Z,18.50
2022-11-24T05:22:37.604Z,18.20
2022-11-24T05:23:08.364Z,20.50
2022-11-24T05:23:39.128Z,19.00
2022-11-24T05:24:09.886Z,18.40
2022-11-24T05:24:40.685Z,19.80
2022-11-24T05:25:11.455Z,17.90
2022-11-24T05:25:47.316Z,17.70
2022-11-24T05:26:14.860Z,19.50
2022-11-24T05:26:45.632Z,19.30
2022-11-24T05:27:16.387Z,19.00
2022-11-24T05:27:47.167Z,19.00
2022-11-24T05:28:17.938Z,18.00
2022-11-24T05:28:48.714Z,18.10
2022-11-24T05:29:19.516Z,18.10
2022-11-24T05:29:50.338Z,18.00
2022-11-24T05:30:21.104Z,17.70
2022-11-24T05:30:51.875Z,18.50
2022-11-24T05:31:22.736Z,18.80
2022-11-24T05:31:53.487Z,18.90
2022-11-24T05:32:24.247Z,17.70
2022-11-24T05:32:55.036Z,18.80
2022-11-24T05:33:25.810Z,19.30
2022-11-24T05:33:56.568Z,19.30
2022-11-24T05:34:27.337Z,19.50
2022-11-24T05:34:58.120Z,19.90
2022-11-24T05:35:28.948Z,19.00
2022-11-24T05:35:59.705Z,20.30
2022-11-24T05:36:30.498Z,20.30
2022-11-24T05:37:01.266Z,19.60
2022-11-24T05:37:32.039Z,20.70
2022-11-24T05:38:02.839Z,19.90
2022-11-24T05:38:33.607Z,19.50
2022-11-24T05:39:04.366Z,18.30
2022-11-24T05:39:35.143Z,18.80
2022-11-24T05:40:05.979Z,19.60
2022-11-24T05:40:36.750Z,19.20
2022-11-24T05:41:07.527Z,19.90
2022-11-24T05:41:39.253Z,20.20
2022-11-24T05:42:10.086Z,19.90
2022-11-24T05:42:46.082Z,19.40
2022-11-24T05:43:13.497Z,19.10
2022-11-24T05:43:44.278Z,21.30
2022-11-24T05:44:15.056Z,20.10
2022-11-24T05:44:45.870Z,20.20
2022-11-24T05:45:16.629Z,20.80
2022-11-24T05:45:47.432Z,19.00
2022-11-24T05:46:18.250Z,20.70
2022-11-24T05:46:49.101Z,20.50
2022-11-24T05:47:20.000Z,19.80
2022-11-24T05:47:50.769Z,20.20
2022-11-24T05:48:21.572Z,20.60
2022-11-24T05:48:52.336Z,20.10
2022-11-24T05:49:23.089Z,21.00
2022-11-24T05:49:53.889Z,19.70
2022-11-24T05:50:24.681Z,18.80
2022-11-24T05:50:55.448Z,19.20
2022-11-24T05:51:26.219Z,20.10
2022-11-24T05:51:57.022Z,19.70
2022-11-24T05:52:27.811Z,20.90
2022-11-24T05:52:58.563Z,19.90
2022-11-24T05:53:29.339Z,20.10
2022-11-24T05:54:00.123Z,20.00
2022-11-24T05:54:31.010Z,21.30
2022-11-24T05:55:01.828Z,19.40
2022-11-24T05:55:32.603Z,19.80
2022-11-24T05:56:03.384Z,19.90
2022-11-24T05:56:34.164Z,20.60
2022-11-24T05:57:04.942Z,20.10
2022-11-24T05:57:35.722Z,20.60
2022-11-24T05:58:06.491Z,21.30
2022-11-24T05:58:37.336Z,23.50
2022-11-24T05:59:09.970Z,22.50
2022-11-24T05:59:40.999Z,23.10
2022-11-24T06:00:11.791Z,24.30
2022-11-24T06:00:42.542Z,23.00
2022-11-24T06:01:13.339Z,23.50
2022-11-24T06:01:44.275Z,22.20
2022-11-24T06:02:15.206Z,19.70
2022-11-24T06:02:46.188Z,18.60
2022-11-24T06:03:17.190Z,19.10
2022-11-24T06:03:47.982Z,20.80
2022-11-24T06:04:18.765Z,19.30
2022-11-24T06:04:49.562Z,19.30
2022-11-24T06:05:20.364Z,19.40
2022-11-24T06:05:51.122Z,19.70
2022-11-24T06:06:21.883Z,19.90
2022-11-24T06:06:52.671Z,19.10
2022-11-24T06:07:23.467Z,19.50
2022-11-24T06:07:54.351Z,21.00
2022-11-24T06:08:29.661Z,21.10
2022-11-24T06:08:57.763Z,19.30
2022-11-24T06:09:28.531Z,20.60
2022-11-24T06:09:59.289Z,19.40
2022-11-24T06:10:30.081Z,19.70
2022-11-24T06:11:00.863Z,19.30
2022-11-24T06:11:31.623Z,18.70
2022-11-24T06:12:02.394Z,19.30
2022-11-24T06:12:33.183Z,19.70
2022-11-24T06:13:03.997Z,19.90
2022-11-24T06:13:34.837Z,18.40
2022-11-24T06:14:09.789Z,18.90
2022-11-24T06:14:38.410Z,19.20
2022-11-24T06:15:09.222Z,20.10
2022-11-24T06:15:40.038Z,19.50
2022-11-24T06:16:10.856Z,20.70
2022-11-24T06:16:41.690Z,20.90
2022-11-24T06:17:12.513Z,19.80
2022-11-24T06:17:43.297Z,20.60
2022-11-24T06:18:14.068Z,20.60
2022-11-24T06:18:44.844Z,19.90
2022-11-24T06:19:15.622Z,20.50
2022-11-24T06:19:46.396Z,20.80
2022-11-24T06:20:17.184Z,20.00
2022-11-24T06:21:09.283Z,20.30
2022-11-24T06:21:20.597Z,20.40
2022-11-24T06:21:51.355Z,19.70
2022-11-24T06:22:22.131Z,20.40
2022-11-24T06:22:52.905Z,19.90
2022-11-24T06:23:23.658Z,19.70
2022-11-24T06:23:54.407Z,19.70
2022-11-24T06:24:25.385Z,20.30
2022-11-24T06:24:56.123Z,20.20
2022-11-24T06:25:26.885Z,19.90
2022-11-24T06:25:57.645Z,20.00
2022-11-24T06:26:28.384Z,20.10
2022-11-24T06:26:59.128Z,20.20
2022-11-24T06:27:29.865Z,20.30
2022-11-24T06:28:00.609Z,20.00
2022-11-24T06:28:31.345Z,21.70
2022-11-24T06:29:02.084Z,20.00
2022-11-24T06:29:32.826Z,20.70
2022-11-24T06:30:03.581Z,20.30
2022-11-24T06:30:34.336Z,21.20
2022-11-24T06:31:05.087Z,19.10
2022-11-24T06:31:35.865Z,20.00
2022-11-24T06:32:06.740Z,21.70
2022-11-24T06:32:37.518Z,20.20
2022-11-24T06:33:08.268Z,20.50
2022-11-24T06:33:39.011Z,19.60
2022-11-24T06:34:10.014Z,20.10
2022-11-24T06:34:40.895Z,20.40
2022-11-24T06:35:11.719Z,20.10
2022-11-24T06:35:42.490Z,20.80
2022-11-24T06:36:13.255Z,20.10
2022-11-24T06:36:44.036Z,18.80
2022-11-24T06:37:14.799Z,19.70
2022-11-24T06:37:45.575Z,20.00
2022-11-24T06:38:20.065Z,20.90
2022-11-24T06:38:48.928Z,20.90
2022-11-24T06:39:19.683Z,21.00
2022-11-24T06:39:50.435Z,21.00
2022-11-24T06:40:21.198Z,21.50
2022-11-24T06:40:52.028Z,22.80
2022-11-24T06:41:22.789Z,21.00
2022-11-24T06:41:53.575Z,20.50
2022-11-24T06:42:24.321Z,21.30
2022-11-24T06:42:55.260Z,20.90
2022-11-24T06:43:26.044Z,19.30
2022-11-24T06:43:56.960Z,20.70
2022-11-24T06:44:27.711Z,21.40
2022-11-24T06:44:58.458Z,19.70
2022-11-24T06:45:29.303Z,21.10
2022-11-24T06:46:00.080Z,21.20
2022-11-24T06:46:30.868Z,20.00
2022-11-24T06:47:01.642Z,20.80
2022-11-24T06:47:32.401Z,19.80
2022-11-24T06:48:03.150Z,21.30
2022-11-24T06:48:33.940Z,20.50
2022-11-24T06:49:04.701Z,20.10
2022-11-24T06:49:35.453Z,20.90
2022-11-24T06:50:06.248Z,22.50
2022-11-24T06:50:37.054Z,21.00
2022-11-24T06:51:07.829Z,21.70
2022-11-24T06:51:38.580Z,20.80
2022-11-24T06:52:09.330Z,20.40
2022-11-24T06:52:40.089Z,20.30
2022-11-24T06:53:10.839Z,20.80
2022-11-24T06:53:41.590Z,20.50
2022-11-24T06:54:12.331Z,20.80
2022-11-24T06:54:43.090Z,21.20
2022-11-24T06:55:13.832Z,20.60
2022-11-24T06:55:44.609Z,19.30
2022-11-24T06:56:16.926Z,20.30
2022-11-24T06:56:47.786Z,20.90
2022-11-24T06:57:18.538Z,20.10
2022-11-24T06:57:49.279Z,19.70
2022-11-24T06:58:20.025Z,20.80
2022-11-24T06:58:50.768Z,20.90
2022-11-24T06:59:21.511Z,20.30
2022-11-24T06:59:52.261Z,21.30
2022-11-24T07:00:23.011Z,20.50
2022-11-24T07:00:53.910Z,22.90
2022-11-24T07:01:24.817Z,20.50
2022-11-24T07:01:55.609Z,20.40
2022-11-24T07:02:26.362Z,20.90
2022-11-24T07:02:57.156Z,21.60
2022-11-24T07:03:27.934Z,20.80
2022-11-24T07:03:58.692Z,24.10
2022-11-24T07:04:29.450Z,23.70
2022-11-24T07:05:00.194Z,22.40
2022-11-24T07:05:30.967Z,22.30
2022-11-24T07:06:01.701Z,21.50
2022-11-24T07:06:32.453Z,21.90
2022-11-24T07:07:03.203Z,21.50
2022-11-24T07:07:34.019Z,22.00
2022-11-24T07:08:04.791Z,23.20
2022-11-24T07:08:35.537Z,21.30
2022-11-24T07:09:06.283Z,21.40
2022-11-24T07:09:37.035Z,20.70
2022-11-24T07:10:07.779Z,20.00
2022-11-24T07:10:38.549Z,20.40
2022-11-24T07:11:09.292Z,19.50
2022-11-24T07:11:40.057Z,19.90
2022-11-24T07:12:10.811Z,19.70
2022-11-24T07:12:41.563Z,19.20
2022-11-24T07:13:12.302Z,20.20
2022-11-24T07:13:43.062Z,19.90
2022-11-24T07:14:13.807Z,20.00
2022-11-24T07:14:44.564Z,20.00
2022-11-24T07:15:15.293Z,20.70
2022-11-24T07:15:46.053Z,20.80
2022-11-24T07:16:16.855Z,20.20
2022-11-24T07:16:47.675Z,21.90
2022-11-24T07:17:18.411Z,23.90
2022-11-24T07:17:49.153Z,24.80
2022-11-24T07:18:19.910Z,22.90
2022-11-24T07:18:50.664Z,21.60
2022-11-24T07:19:24.811Z,22.00
2022-11-24T07:19:52.963Z,28.00
2022-11-24T07:20:23.713Z,24.60
2022-11-24T07:20:54.481Z,22.10
2022-11-24T07:21:25.236Z,22.60
2022-11-24T07:21:55.983Z,23.30
2022-11-24T07:22:26.734Z,25.20
2022-11-24T07:22:57.475Z,29.30
2022-11-24T07:23:28.215Z,30.80
2022-11-24T07:23:58.975Z,29.40
2022-11-24T07:24:29.725Z,23.90
2022-11-24T07:25:00.465Z,21.60
2022-11-24T07:25:31.206Z,21.50
2022-11-24T07:26:06.575Z,21.70
2022-11-24T07:26:34.574Z,22.60
2022-11-24T07:27:05.327Z,21.20
2022-11-24T07:27:36.088Z,22.90
2022-11-24T07:28:06.825Z,27.20
2022-11-24T07:28:37.574Z,27.10
2022-11-24T07:29:08.336Z,26.50
2022-11-24T07:29:39.095Z,23.10
2022-11-24T07:30:09.845Z,21.70
2022-11-24T07:30:40.613Z,23.00
2022-11-24T07:31:11.373Z,23.30
2022-11-24T07:31:42.152Z,21.20
2022-11-24T07:32:12.974Z,21.90
2022-11-24T07:32:43.737Z,20.60
2022-11-24T07:33:14.484Z,20.60
2022-11-24T07:33:45.227Z,21.90
2022-11-24T07:34:15.983Z,21.40
2022-11-24T07:34:46.727Z,21.70
2022-11-24T07:35:17.488Z,22.20
2022-11-24T07:35:48.247Z,22.20
2022-11-24T07:36:19.007Z,21.80
2022-11-24T07:36:49.755Z,22.50
2022-11-24T07:37:20.496Z,22.60
2022-11-24T07:37:51.249Z,21.60
2022-11-24T07:38:21.989Z,23.20
2022-11-24T07:38:52.736Z,23.10
2022-11-24T07:39:23.497Z,21.90
2022-11-24T07:39:54.242Z,21.90
2022-11-24T07:40:24.991Z,21.60
2022-11-24T07:40:55.768Z,21.70
2022-11-24T07:41:26.517Z,23.40
2022-11-24T07:41:57.278Z,22.60
2022-11-24T07:42:28.028Z,21.70
2022-11-24T07:42:58.769Z,22.60
2022-11-24T07:43:29.509Z,21.70
2022-11-24T07:44:00.262Z,22.70
2022-11-24T07:44:31.040Z,21.60
2022-11-24T07:45:01.787Z,23.30
2022-11-24T07:45:34.117Z,21.80
2022-11-24T07:46:04.995Z,21.10
2022-11-24T07:46:35.932Z,21.90
2022-11-24T07:47:06.739Z,20.20
2022-11-24T07:47:37.491Z,21.70
2022-11-24T07:48:08.248Z,22.50
2022-11-24T07:48:39.000Z,20.60
2022-11-24T07:49:09.750Z,20.20
2022-11-24T07:49:40.501Z,20.80
2022-11-24T07:50:11.277Z,20.50
2022-11-24T07:50:42.001Z,20.50
2022-11-24T07:51:12.788Z,20.50
2022-11-24T07:51:43.555Z,20.60
2022-11-24T07:52:14.291Z,21.60
2022-11-24T07:52:45.039Z,22.50
2022-11-24T07:53:15.812Z,22.50
2022-11-24T07:53:46.561Z,21.10
2022-11-24T07:54:17.302Z,21.10
2022-11-24T07:54:48.058Z,21.20
2022-11-24T07:55:18.809Z,20.70
2022-11-24T07:55:49.571Z,21.30
2022-11-24T07:56:20.311Z,21.90
2022-11-24T07:56:51.058Z,22.80
2022-11-24T07:57:21.812Z,23.30
2022-11-24T07:57:52.560Z,21.70
2022-11-24T07:58:23.660Z,20.60
2022-11-24T07:58:56.255Z,21.50
2022-11-24T07:59:26.994Z,21.50
2022-11-24T07:59:57.779Z,22.40
2022-11-24T08:00:28.509Z,22.00
2022-11-24T08:00:59.279Z,21.20
2022-11-24T08:01:30.057Z,21.30
2022-11-24T08:02:00.828Z,21.50
2022-11-24T08:02:31.593Z,22.10